createdAt,value
2017-12-31T00:01:22.453Z,8.10
2017-12-31T00:03:51.542Z,8.10
2017-12-31T00:06:19.890Z,8.10
2017-12-31T00:08:48.178Z,8.10
2017-12-31T00:11:16.470Z,8.20
2017-12-31T00:13:44.791Z,8.20
2017-12-31T00:16:13.100Z,8.20
2017-12-31T00:18:41.383Z,8.20
2017-12-31T00:21:09.671Z,8.10
2017-12-31T00:23:37.967Z,8.10
2017-12-31T00:26:06.276Z,8.00
2017-12-31T00:28:34.562Z,8.00
2017-12-31T00:31:02.846Z,7.90
2017-12-31T00:33:31.136Z,7.90
2017-12-31T00:35:59.428Z,7.80
2017-12-31T00:38:27.754Z,7.70
2017-12-31T00:40:56.043Z,7.70
2017-12-31T00:43:24.339Z,7.70
2017-12-31T00:45:52.632Z,7.60
2017-12-31T00:48:20.929Z,7.60
2017-12-31T00:50:49.271Z,7.60
2017-12-31T00:53:17.555Z,7.60
2017-12-31T00:55:45.871Z,7.50
2017-12-31T00:58:14.933Z,7.30
2017-12-31T01:00:43.236Z,7.30
2017-12-31T01:03:11.536Z,7.20
2017-12-31T01:05:39.835Z,7.10
2017-12-31T01:08:08.915Z,7.00
2017-12-31T01:10:37.213Z,7.00
2017-12-31T01:13:06.310Z,6.80
2017-12-31T01:15:34.600Z,6.80
2017-12-31T01:18:02.882Z,6.70
2017-12-31T01:20:31.303Z,6.70
2017-12-31T01:22:59.586Z,6.60
2017-12-31T01:25:27.882Z,6.50
2017-12-31T01:27:56.182Z,6.50
2017-12-31T01:30:24.469Z,6.50
2017-12-31T01:32:52.799Z,6.40
2017-12-31T01:35:21.117Z,6.40
2017-12-31T01:37:49.405Z,6.50
2017-12-31T01:40:17.695Z,6.50
2017-12-31T01:42:46.001Z,6.50
2017-12-31T01:45:14.412Z,6.40
2017-12-31T01:47:42.706Z,6.40
2017-12-31T01:50:10.994Z,6.30
2017-12-31T01:52:39.283Z,6.30
2017-12-31T01:55:07.578Z,6.30
2017-12-31T01:57:35.904Z,6.30
2017-12-31T02:00:04.210Z,6.20
2017-12-31T02:02:32.497Z,6.20
2017-12-31T02:05:00.798Z,6.10
2017-12-31T02:07:29.100Z,6.10
2017-12-31T02:09:57.399Z,6.10
2017-12-31T02:12:25.694Z,6.10
2017-12-31T02:14:53.990Z,6.10
2017-12-31T02:17:22.292Z,6.10
2017-12-31T02:19:51.373Z,6.20
2017-12-31T02:22:19.711Z,6.20
2017-12-31T02:24:48.000Z,6.20
2017-12-31T02:27:16.301Z,6.20
2017-12-31T02:29:44.590Z,6.30
2017-12-31T02:32:12.885Z,6.30
2017-12-31T02:34:41.214Z,6.30
2017-12-31T02:37:09.508Z,6.40
2017-12-31T02:39:37.795Z,6.40
2017-12-31T02:42:06.082Z,6.40
2017-12-31T02:44:34.637Z,6.50
2017-12-31T02:47:02.970Z,6.40
2017-12-31T02:49:31.259Z,6.50
2017-12-31T02:51:59.540Z,6.50
2017-12-31T02:54:27.862Z,6.50
2017-12-31T02:56:56.148Z,6.50
2017-12-31T02:59:24.462Z,6.50
2017-12-31T03:01:53.521Z,6.50
2017-12-31T03:04:21.845Z,6.50
2017-12-31T03:06:50.142Z,6.50
2017-12-31T03:09:19.195Z,6.50
2017-12-31T03:11:47.493Z,6.50
2017-12-31T03:14:15.810Z,6.50
2017-12-31T03:16:44.083Z,6.50
2017-12-31T03:19:12.404Z,6.50
2017-12-31T03:21:41.466Z,6.50
2017-12-31T03:24:09.758Z,6.50
2017-12-31T03:26:38.076Z,6.50
2017-12-31T03:29:06.374Z,6.50
2017-12-31T03:31:34.698Z,6.50
2017-12-31T03:34:02.970Z,6.60
2017-12-31T03:36:32.031Z,6.70
2017-12-31T03:39:00.326Z,6.60
2017-12-31T03:41:28.604Z,6.70
2017-12-31T03:43:56.922Z,6.80
2017-12-31T03:46:25.221Z,6.80
2017-12-31T03:48:53.508Z,6.80
2017-12-31T03:51:21.819Z,6.80
2017-12-31T03:53:50.118Z,6.80
2017-12-31T03:56:18.453Z,6.80
2017-12-31T03:58:46.783Z,6.80
2017-12-31T04:01:15.090Z,6.80
2017-12-31T04:03:43.502Z,6.90
2017-12-31T04:06:11.790Z,6.90
2017-12-31T04:08:40.076Z,6.90
2017-12-31T04:11:08.361Z,7.00
2017-12-31T04:13:36.779Z,7.00
2017-12-31T04:16:05.050Z,7.00
2017-12-31T04:18:33.336Z,7.00
2017-12-31T04:21:01.623Z,7.00
2017-12-31T04:23:29.946Z,7.00
2017-12-31T04:25:58.264Z,7.10
2017-12-31T04:28:26.550Z,7.10
2017-12-31T04:30:54.867Z,7.20
2017-12-31T04:33:23.927Z,7.30
2017-12-31T04:35:52.207Z,7.30
2017-12-31T04:38:20.537Z,7.40
2017-12-31T04:40:48.831Z,7.40
2017-12-31T04:43:17.883Z,7.50
2017-12-31T04:45:46.179Z,7.50
2017-12-31T04:48:14.467Z,7.50
2017-12-31T04:50:42.784Z,7.60
2017-12-31T04:53:11.084Z,7.70
2017-12-31T04:55:39.487Z,7.70
2017-12-31T04:58:07.772Z,7.70
2017-12-31T05:00:36.087Z,7.70
2017-12-31T05:03:05.141Z,7.70
2017-12-31T05:05:33.418Z,7.70
2017-12-31T05:08:01.710Z,7.80
2017-12-31T05:10:30.003Z,7.90
2017-12-31T05:12:58.334Z,7.90
2017-12-31T05:15:26.620Z,8.00
2017-12-31T05:17:54.928Z,8.00
2017-12-31T05:20:24.017Z,8.00
2017-12-31T05:22:52.328Z,8.00
2017-12-31T05:25:21.398Z,8.10
2017-12-31T05:27:49.690Z,8.10
2017-12-31T05:30:17.983Z,8.20
2017-12-31T05:32:46.297Z,8.20
2017-12-31T05:35:15.355Z,8.20
2017-12-31T05:37:43.647Z,8.20
2017-12-31T05:40:11.935Z,8.20
2017-12-31T05:42:40.208Z,8.30
2017-12-31T05:45:09.292Z,8.40
2017-12-31T05:47:38.344Z,8.40
2017-12-31T05:50:06.626Z,8.30
2017-12-31T05:52:34.906Z,8.30
2017-12-31T05:55:03.194Z,8.40
2017-12-31T05:57:31.473Z,8.40
2017-12-31T05:59:59.754Z,8.50
2017-12-31T06:02:28.170Z,8.50
2017-12-31T06:04:56.455Z,8.50
2017-12-31T06:07:24.771Z,8.50
2017-12-31T06:09:53.072Z,8.50
2017-12-31T06:12:21.403Z,8.50
2017-12-31T06:14:49.778Z,8.50
2017-12-31T06:17:18.830Z,8.50
2017-12-31T06:19:47.107Z,8.50
2017-12-31T06:22:15.404Z,8.50
2017-12-31T06:24:43.700Z,8.50
2017-12-31T06:27:11.978Z,8.60
2017-12-31T06:29:40.255Z,8.60
2017-12-31T06:32:09.359Z,8.60
2017-12-31T06:34:38.416Z,8.60
2017-12-31T06:37:06.695Z,8.60
2017-12-31T06:39:34.975Z,8.60
2017-12-31T06:42:03.255Z,8.60
2017-12-31T06:44:31.567Z,8.60
2017-12-31T06:46:59.846Z,8.60
2017-12-31T06:49:28.136Z,8.60
2017-12-31T06:51:56.413Z,8.60
2017-12-31T06:54:24.717Z,8.60
2017-12-31T06:56:53.056Z,8.60
2017-12-31T06:59:23.941Z,8.60
2017-12-31T07:01:52.230Z,8.70
2017-12-31T07:04:20.534Z,8.70
2017-12-31T07:06:48.823Z,8.70
2017-12-31T07:09:17.134Z,8.70
2017-12-31T07:11:45.419Z,8.70
2017-12-31T07:14:13.712Z,8.70
2017-12-31T07:16:41.999Z,8.70
2017-12-31T07:19:10.279Z,8.70
2017-12-31T07:21:38.604Z,8.70
2017-12-31T07:24:06.899Z,8.70
2017-12-31T07:26:35.179Z,8.80
2017-12-31T07:29:03.478Z,8.80
2017-12-31T07:31:31.770Z,8.80
2017-12-31T07:34:00.057Z,8.80
2017-12-31T07:36:28.366Z,8.80
2017-12-31T07:38:57.515Z,8.80
2017-12-31T07:41:25.824Z,8.70
2017-12-31T07:43:54.113Z,8.70
2017-12-31T07:46:22.436Z,8.60
2017-12-31T07:48:51.507Z,8.70
2017-12-31T07:51:19.912Z,8.70
2017-12-31T07:53:48.343Z,8.70
2017-12-31T07:56:17.421Z,8.70
2017-12-31T07:58:45.708Z,8.70
2017-12-31T08:01:13.999Z,8.70
2017-12-31T08:03:42.408Z,8.70
2017-12-31T08:06:10.683Z,8.70
2017-12-31T08:08:38.971Z,8.80
2017-12-31T08:11:07.247Z,8.80
2017-12-31T08:13:35.559Z,8.80
2017-12-31T08:16:03.890Z,8.80
2017-12-31T08:18:32.182Z,8.80
2017-12-31T08:21:00.469Z,8.80
2017-12-31T08:23:29.537Z,8.90
2017-12-31T08:25:57.819Z,8.90
2017-12-31T08:28:26.140Z,8.90
2017-12-31T08:30:55.198Z,8.90
2017-12-31T08:33:23.488Z,8.90
2017-12-31T08:35:55.967Z,8.90
2017-12-31T08:38:27.111Z,8.90
2017-12-31T08:41:19.094Z,8.90
2017-12-31T08:53:35.739Z,9.00
2017-12-31T08:56:10.763Z,9.00
2017-12-31T08:58:39.111Z,9.10
2017-12-31T09:01:07.423Z,9.20
2017-12-31T09:03:35.713Z,9.20
2017-12-31T09:06:04.002Z,9.20
2017-12-31T09:08:32.315Z,9.20
2017-12-31T09:11:00.644Z,9.20
2017-12-31T09:13:29.700Z,9.40
2017-12-31T09:15:58.765Z,9.40
2017-12-31T09:18:27.080Z,9.40
2017-12-31T09:20:55.539Z,9.40
2017-12-31T09:23:24.699Z,9.40
2017-12-31T09:25:53.033Z,9.40
2017-12-31T09:28:21.347Z,9.40
2017-12-31T09:30:49.687Z,9.30
2017-12-31T09:33:18.008Z,9.30
2017-12-31T09:35:47.066Z,9.30
2017-12-31T09:38:15.401Z,9.30
2017-12-31T09:40:43.776Z,9.30
2017-12-31T09:43:12.275Z,9.30
2017-12-31T09:45:40.658Z,9.20
2017-12-31T09:48:09.064Z,9.20
2017-12-31T09:50:37.438Z,9.20
2017-12-31T09:53:05.817Z,9.20
2017-12-31T09:55:35.010Z,9.20
2017-12-31T09:58:03.379Z,9.20
2017-12-31T10:00:31.798Z,9.20
2017-12-31T10:03:00.183Z,9.20
2017-12-31T10:05:28.549Z,9.20
2017-12-31T10:07:57.709Z,9.10
2017-12-31T10:10:26.098Z,9.10
2017-12-31T10:12:54.484Z,9.10
2017-12-31T10:15:22.868Z,9.10
2017-12-31T10:17:51.265Z,9.00
2017-12-31T10:20:19.649Z,9.00
2017-12-31T10:22:48.026Z,8.90
2017-12-31T10:25:16.307Z,8.90
2017-12-31T10:27:45.413Z,8.80
2017-12-31T10:30:14.467Z,8.80
2017-12-31T10:32:42.792Z,8.80
2017-12-31T10:35:12.079Z,8.70
2017-12-31T10:37:40.376Z,8.70
2017-12-31T10:40:08.674Z,8.60
2017-12-31T10:42:36.955Z,8.60
2017-12-31T10:45:05.308Z,8.60
2017-12-31T10:47:33.611Z,8.50
2017-12-31T10:50:01.943Z,8.50
2017-12-31T10:52:30.271Z,8.50
2017-12-31T10:54:58.628Z,8.50
2017-12-31T10:57:27.727Z,8.60
2017-12-31T10:59:56.032Z,8.60
2017-12-31T11:02:25.911Z,8.60
2017-12-31T11:04:54.247Z,8.60
2017-12-31T11:07:22.576Z,8.60
2017-12-31T11:09:50.910Z,8.60
2017-12-31T11:12:19.207Z,8.60
2017-12-31T11:14:47.498Z,8.60
2017-12-31T11:17:15.780Z,8.60
2017-12-31T11:19:44.102Z,8.60
2017-12-31T11:22:12.464Z,8.60
2017-12-31T11:24:41.662Z,8.60
2017-12-31T11:27:09.977Z,8.60
2017-12-31T11:29:38.263Z,8.60
2017-12-31T11:32:06.593Z,8.60
2017-12-31T11:34:34.919Z,8.60
2017-12-31T11:37:03.209Z,8.60
2017-12-31T11:39:31.500Z,8.60
2017-12-31T11:41:59.799Z,8.60
2017-12-31T11:44:28.110Z,8.60
2017-12-31T11:46:57.224Z,8.60
2017-12-31T11:49:26.299Z,8.60
2017-12-31T11:51:54.586Z,8.60
2017-12-31T11:54:22.906Z,8.60
2017-12-31T11:56:51.995Z,8.60
2017-12-31T11:59:20.392Z,8.60
2017-12-31T12:01:49.500Z,8.60
2017-12-31T12:04:18.753Z,8.70
2017-12-31T12:06:47.090Z,8.60
2017-12-31T12:09:15.467Z,8.60
2017-12-31T12:11:43.872Z,8.70
2017-12-31T12:14:12.162Z,8.70
2017-12-31T12:16:40.454Z,8.60
2017-12-31T12:19:08.758Z,8.70
2017-12-31T12:21:37.044Z,8.60
2017-12-31T12:24:05.367Z,8.60
2017-12-31T12:26:34.412Z,8.70
2017-12-31T12:29:02.714Z,8.70
2017-12-31T12:31:31.038Z,8.80
2017-12-31T12:34:00.175Z,8.90
2017-12-31T12:36:28.539Z,8.90
2017-12-31T12:38:56.864Z,9.00
2017-12-31T12:41:25.173Z,9.00
2017-12-31T12:43:53.512Z,9.10
2017-12-31T12:46:22.569Z,9.20
2017-12-31T12:48:50.939Z,9.20
2017-12-31T12:51:19.247Z,9.30
2017-12-31T12:53:47.549Z,9.30
2017-12-31T12:56:15.880Z,9.30
2017-12-31T12:58:44.947Z,9.40
2017-12-31T13:01:13.273Z,9.40
2017-12-31T13:03:41.604Z,9.40
2017-12-31T13:06:09.900Z,9.40
2017-12-31T13:08:38.231Z,9.40
2017-12-31T13:11:06.524Z,9.40
2017-12-31T13:13:35.348Z,9.40
2017-12-31T13:16:03.789Z,9.30
2017-12-31T13:18:32.121Z,9.40
2017-12-31T13:21:01.107Z,9.30
2017-12-31T13:23:30.744Z,9.40
2017-12-31T13:25:59.383Z,9.40
2017-12-31T13:28:27.729Z,9.40
2017-12-31T13:30:57.150Z,9.50
2017-12-31T13:33:25.688Z,9.50
2017-12-31T13:35:54.021Z,9.50
2017-12-31T13:38:22.834Z,9.50
2017-12-31T13:40:51.450Z,9.50
2017-12-31T13:43:19.825Z,9.50
2017-12-31T13:45:48.120Z,9.50
2017-12-31T13:48:16.450Z,9.60
2017-12-31T13:50:44.776Z,9.50
2017-12-31T13:53:13.078Z,9.50
2017-12-31T13:55:41.465Z,9.60
2017-12-31T13:58:09.791Z,9.50
2017-12-31T14:00:38.854Z,9.60
2017-12-31T14:03:07.166Z,9.60
2017-12-31T14:05:35.464Z,9.50
2017-12-31T14:08:03.762Z,9.50
2017-12-31T14:10:32.891Z,9.50
2017-12-31T14:13:01.234Z,9.50
2017-12-31T14:15:29.567Z,9.50
2017-12-31T14:17:57.947Z,9.50
2017-12-31T14:20:27.043Z,9.50
2017-12-31T14:22:55.361Z,9.40
2017-12-31T14:25:23.853Z,9.40
2017-12-31T14:27:52.217Z,9.40
2017-12-31T14:30:20.530Z,9.40
2017-12-31T14:32:49.626Z,9.40
2017-12-31T14:35:18.702Z,9.40
2017-12-31T14:37:46.988Z,9.40
2017-12-31T14:40:15.359Z,9.30
2017-12-31T14:42:43.672Z,9.30
2017-12-31T14:45:11.970Z,9.30
2017-12-31T14:47:40.323Z,9.30
2017-12-31T14:50:08.627Z,9.30
2017-12-31T14:52:37.155Z,9.30
2017-12-31T14:55:05.446Z,9.30
2017-12-31T14:57:33.787Z,9.30
2017-12-31T15:00:02.872Z,9.30
2017-12-31T15:02:31.180Z,9.30
2017-12-31T15:05:00.239Z,9.30
2017-12-31T15:07:29.433Z,9.30
2017-12-31T15:09:57.796Z,9.30
2017-12-31T15:12:26.891Z,9.30
2017-12-31T15:14:55.220Z,9.30
2017-12-31T15:17:23.523Z,9.30
2017-12-31T15:19:51.824Z,9.30
2017-12-31T15:22:20.228Z,9.30
2017-12-31T15:24:48.544Z,9.20
2017-12-31T15:27:16.828Z,9.30
2017-12-31T15:29:45.900Z,9.30
2017-12-31T15:32:14.201Z,9.20
2017-12-31T15:34:42.534Z,9.30
2017-12-31T15:37:11.596Z,9.30
2017-12-31T15:39:39.893Z,9.30
2017-12-31T15:42:08.965Z,9.30
2017-12-31T15:44:38.066Z,9.30
2017-12-31T15:47:06.389Z,9.30
2017-12-31T15:49:35.683Z,9.30
2017-12-31T15:52:04.016Z,9.30
2017-12-31T15:54:32.377Z,9.30
2017-12-31T15:57:00.707Z,9.20
2017-12-31T15:59:29.016Z,9.20
2017-12-31T16:01:58.151Z,9.30
2017-12-31T16:04:26.566Z,9.30
2017-12-31T16:06:55.767Z,9.30
2017-12-31T16:09:24.051Z,9.30
2017-12-31T16:11:53.096Z,9.30
2017-12-31T16:14:21.446Z,9.30
2017-12-31T16:16:49.753Z,9.30
2017-12-31T16:19:18.078Z,9.30
2017-12-31T16:21:46.377Z,9.20
2017-12-31T16:24:15.434Z,9.30
2017-12-31T16:26:43.765Z,9.30
2017-12-31T16:29:12.356Z,9.20
2017-12-31T16:31:41.570Z,9.20
2017-12-31T16:34:10.055Z,9.20
2017-12-31T16:36:39.180Z,9.30
2017-12-31T16:39:07.495Z,9.30
2017-12-31T16:41:36.094Z,9.30
2017-12-31T16:44:04.547Z,9.30
2017-12-31T16:46:33.771Z,9.30
2017-12-31T16:49:02.156Z,9.20
2017-12-31T16:51:30.484Z,9.30
2017-12-31T16:53:59.550Z,9.30
2017-12-31T16:56:27.999Z,9.30
2017-12-31T16:58:56.315Z,9.30
2017-12-31T17:01:24.622Z,9.20
2017-12-31T17:03:52.959Z,9.20
2017-12-31T17:06:21.248Z,9.20
2017-12-31T17:08:50.290Z,9.20
2017-12-31T17:11:19.343Z,9.30
2017-12-31T17:13:48.424Z,9.30
2017-12-31T17:16:16.739Z,9.30
2017-12-31T17:18:45.794Z,9.30
2017-12-31T17:21:14.093Z,9.30
2017-12-31T17:23:42.392Z,9.30
2017-12-31T17:26:10.674Z,9.40
2017-12-31T17:28:39.766Z,9.30
2017-12-31T17:31:08.054Z,9.40
2017-12-31T17:33:37.106Z,9.40
2017-12-31T17:36:05.450Z,9.40
2017-12-31T17:38:33.790Z,9.40
2017-12-31T17:41:02.208Z,9.40
2017-12-31T17:43:31.304Z,9.40
2017-12-31T17:46:00.428Z,9.40
2017-12-31T17:48:28.748Z,9.40
2017-12-31T17:50:57.149Z,9.40
2017-12-31T17:53:25.486Z,9.40
2017-12-31T17:55:54.534Z,9.40
2017-12-31T17:58:22.929Z,9.40
2017-12-31T18:00:51.237Z,9.40
2017-12-31T18:03:19.519Z,9.40
2017-12-31T18:05:47.990Z,9.40
2017-12-31T18:08:17.062Z,9.40
2017-12-31T18:10:46.116Z,9.40
2017-12-31T18:13:14.402Z,9.30
2017-12-31T18:15:42.716Z,9.30
2017-12-31T18:18:11.033Z,9.30
2017-12-31T18:20:39.349Z,9.30
2017-12-31T18:23:07.654Z,9.40
2017-12-31T18:25:36.711Z,9.40
2017-12-31T18:28:05.087Z,9.40
2017-12-31T18:30:33.457Z,9.30
2017-12-31T18:33:01.842Z,9.30
2017-12-31T18:35:30.134Z,9.30
2017-12-31T18:37:58.551Z,9.30
2017-12-31T18:40:26.892Z,9.30
2017-12-31T18:42:56.086Z,9.30
2017-12-31T18:45:25.182Z,9.30
2017-12-31T18:47:53.473Z,9.30
2017-12-31T18:50:21.754Z,9.30
2017-12-31T18:52:50.055Z,9.40
2017-12-31T18:55:18.392Z,9.40
2017-12-31T18:57:46.658Z,9.40
2017-12-31T19:00:15.715Z,9.30
2017-12-31T19:02:44.070Z,9.30
2017-12-31T19:05:13.110Z,9.20
2017-12-31T19:07:41.418Z,9.20
2017-12-31T19:10:10.475Z,9.10
2017-12-31T19:12:38.823Z,9.10
2017-12-31T19:15:07.127Z,9.10
2017-12-31T19:17:36.244Z,9.20
2017-12-31T19:20:04.717Z,9.20
2017-12-31T19:22:33.043Z,9.10
2017-12-31T19:25:02.120Z,9.10
2017-12-31T19:27:30.438Z,9.10
2017-12-31T19:29:59.523Z,9.10
2017-12-31T19:32:27.932Z,9.10
2017-12-31T19:34:57.022Z,9.00
2017-12-31T19:37:26.216Z,8.90
2017-12-31T19:39:54.577Z,8.90
2017-12-31T19:42:23.039Z,8.80
2017-12-31T19:44:52.112Z,8.70
2017-12-31T19:47:20.589Z,8.70
2017-12-31T19:49:50.524Z,8.60
2017-12-31T19:52:18.887Z,8.50
2017-12-31T19:54:47.403Z,8.50
2017-12-31T19:57:16.056Z,8.50
2017-12-31T19:59:45.169Z,8.30
2017-12-31T20:02:14.223Z,8.30
2017-12-31T20:04:42.498Z,8.30
2017-12-31T20:07:10.830Z,8.30
2017-12-31T20:09:40.647Z,8.30
2017-12-31T20:12:08.931Z,8.20
2017-12-31T20:14:37.236Z,8.20
2017-12-31T20:17:05.647Z,8.20
2017-12-31T20:19:34.814Z,8.20
2017-12-31T20:22:03.148Z,8.10
2017-12-31T20:24:32.244Z,8.20
2017-12-31T20:27:01.337Z,8.20
2017-12-31T20:29:29.654Z,8.20
2017-12-31T20:31:58.167Z,8.10
2017-12-31T20:34:26.484Z,8.10
2017-12-31T20:36:54.772Z,8.20
2017-12-31T20:39:23.075Z,8.10
2017-12-31T20:41:51.634Z,8.10
2017-12-31T20:44:19.972Z,8.10
2017-12-31T20:46:48.365Z,8.10
2017-12-31T20:49:16.842Z,8.10
2017-12-31T20:51:45.523Z,8.10
2017-12-31T20:54:13.869Z,8.00
2017-12-31T20:56:42.153Z,7.90
2017-12-31T20:59:10.430Z,7.90
2017-12-31T21:01:40.390Z,7.90
2017-12-31T21:04:09.460Z,7.90
2017-12-31T21:06:37.787Z,7.90
2017-12-31T21:09:06.876Z,7.90
2017-12-31T21:11:35.175Z,7.90
2017-12-31T21:14:03.487Z,7.80
2017-12-31T21:16:31.812Z,7.80
2017-12-31T21:19:00.152Z,7.70
2017-12-31T21:21:28.474Z,7.80
2017-12-31T21:23:56.861Z,7.80
2017-12-31T21:26:26.387Z,7.80
2017-12-31T21:28:55.710Z,7.70
2017-12-31T21:31:25.089Z,7.80
2017-12-31T21:33:54.169Z,7.80
2017-12-31T21:36:23.275Z,7.70
2017-12-31T21:38:51.587Z,7.70
2017-12-31T21:41:20.115Z,7.70
2017-12-31T21:43:48.396Z,7.70
2017-12-31T21:46:16.678Z,7.70
2017-12-31T21:48:45.738Z,7.70
2017-12-31T21:51:14.039Z,7.70
2017-12-31T21:53:42.355Z,7.60
2017-12-31T21:56:11.410Z,7.60
2017-12-31T21:58:39.698Z,7.50
2017-12-31T22:01:07.999Z,7.60
2017-12-31T22:03:36.314Z,7.60
2017-12-31T22:06:05.700Z,7.50
2017-12-31T22:08:34.203Z,7.40
2017-12-31T22:11:03.412Z,6.70
2017-12-31T22:13:31.735Z,6.70
2017-12-31T22:16:00.848Z,6.30
2017-12-31T22:18:29.190Z,6.30
2017-12-31T22:20:57.558Z,6.20
2017-12-31T22:23:25.984Z,6.10
2017-12-31T22:25:54.337Z,6.10
2017-12-31T22:28:22.649Z,6.00
2017-12-31T22:30:51.055Z,6.00
2017-12-31T22:33:19.363Z,6.00
2017-12-31T22:35:47.650Z,5.90
2017-12-31T22:38:15.947Z,5.90
2017-12-31T22:40:44.239Z,5.80
2017-12-31T22:43:12.571Z,5.80
2017-12-31T22:45:40.871Z,5.80
2017-12-31T22:48:09.162Z,5.80
2017-12-31T22:50:37.456Z,5.70
2017-12-31T22:53:06.070Z,5.70
2017-12-31T22:55:34.439Z,5.70
2017-12-31T22:58:02.794Z,5.70
2017-12-31T23:00:31.960Z,5.70
2017-12-31T23:03:00.426Z,5.70
2017-12-31T23:05:28.844Z,5.70
2017-12-31T23:07:57.200Z,5.70
2017-12-31T23:10:26.360Z,5.80
2017-12-31T23:12:54.723Z,5.80
2017-12-31T23:15:23.203Z,5.80
2017-12-31T23:17:51.548Z,5.80
2017-12-31T23:20:19.865Z,5.80
2017-12-31T23:22:49.060Z,5.90
2017-12-31T23:25:17.444Z,5.80
2017-12-31T23:27:45.839Z,5.90
2017-12-31T23:30:14.221Z,5.90
2017-12-31T23:32:42.566Z,5.90
2017-12-31T23:35:10.944Z,5.90
2017-12-31T23:37:39.331Z,5.90
2017-12-31T23:40:08.447Z,5.90
2017-12-31T23:42:37.589Z,6.00
2017-12-31T23:45:05.987Z,5.90
2017-12-31T23:47:34.373Z,5.90
2017-12-31T23:50:02.817Z,5.90
2017-12-31T23:52:31.951Z,5.80
2017-12-31T23:55:00.334Z,5.80
2017-12-31T23:57:29.504Z,5.70
2017-12-31T23:59:58.758Z,5.70
